createdAt,value
2019-03-06T00:02:46.145Z,55.23
2019-03-06T00:05:51.119Z,54.10
2019-03-06T00:08:55.827Z,55.20
2019-03-06T00:12:00.650Z,53.53
2019-03-06T00:15:06.171Z,53.50
2019-03-06T00:18:10.724Z,53.70
2019-03-06T00:21:15.543Z,56.00
2019-03-06T00:24:20.383Z,56.07
2019-03-06T00:27:25.151Z,54.33
2019-03-06T00:30:30.038Z,55.53
2019-03-06T00:33:34.995Z,55.73
2019-03-06T00:36:39.680Z,53.37
2019-03-06T00:40:06.133Z,54.90
2019-03-06T00:43:10.961Z,52.27
2019-03-06T00:46:15.585Z,54.00
2019-03-06T00:49:20.328Z,53.47
2019-03-06T00:52:25.116Z,52.50
2019-03-06T00:55:29.880Z,50.93
2019-03-06T00:58:34.597Z,48.60
2019-03-06T01:01:39.551Z,50.50
2019-03-06T01:04:44.565Z,48.50
2019-03-06T01:07:49.380Z,47.63
2019-03-06T01:10:54.113Z,46.80
2019-03-06T01:13:58.956Z,46.43
2019-03-06T01:17:05.137Z,46.53
2019-03-06T01:20:09.750Z,44.80
2019-03-06T01:23:14.478Z,45.30
2019-03-06T01:26:19.385Z,44.20
2019-03-06T01:29:24.237Z,43.90
2019-03-06T01:32:28.942Z,41.53
2019-03-06T01:35:46.571Z,43.17
2019-03-06T01:39:08.931Z,40.40
2019-03-06T01:42:32.647Z,39.30
2019-03-06T01:45:37.444Z,39.07
2019-03-06T01:48:42.325Z,40.07
2019-03-06T01:51:47.163Z,39.30
2019-03-06T01:54:51.994Z,37.03
2019-03-06T01:57:56.717Z,37.90
2019-03-06T02:01:01.467Z,37.03
2019-03-06T02:04:06.185Z,34.97
2019-03-06T02:07:11.328Z,34.90
2019-03-06T02:10:16.336Z,33.93
2019-03-06T02:13:22.625Z,33.80
2019-03-06T02:16:27.253Z,31.73
2019-03-06T02:19:31.975Z,30.97
2019-03-06T02:22:36.696Z,31.27
2019-03-06T02:25:43.122Z,30.83
2019-03-06T02:28:48.725Z,30.00
2019-03-06T02:31:53.558Z,30.03
2019-03-06T02:34:58.259Z,28.30
2019-03-06T02:38:03.001Z,29.23
2019-03-06T02:41:07.829Z,28.37
2019-03-06T02:44:12.953Z,27.20
2019-03-06T02:47:17.700Z,26.00
2019-03-06T02:50:25.086Z,25.90
2019-03-06T02:53:29.837Z,25.00
2019-03-06T02:56:34.665Z,24.27
2019-03-06T02:59:48.150Z,23.60
2019-03-06T03:02:58.483Z,23.00
2019-03-06T03:06:06.837Z,22.00
2019-03-06T03:09:18.834Z,22.40
2019-03-06T03:12:23.461Z,22.37
2019-03-06T03:15:28.299Z,21.73
2019-03-06T03:18:33.126Z,20.77
2019-03-06T03:21:37.860Z,21.03
2019-03-06T03:24:42.469Z,20.47
2019-03-06T03:27:48.088Z,20.70
2019-03-06T03:30:52.855Z,20.80
2019-03-06T03:33:57.712Z,19.60
2019-03-06T03:37:02.521Z,19.67
2019-03-06T03:40:07.955Z,18.93
2019-03-06T03:43:12.822Z,18.80
2019-03-06T03:46:17.532Z,17.90
2019-03-06T03:49:22.462Z,16.80
2019-03-06T03:52:27.371Z,17.00
2019-03-06T03:55:32.365Z,18.20
2019-03-06T03:58:37.161Z,16.93
2019-03-06T04:01:43.252Z,18.03
2019-03-06T04:04:48.149Z,16.33
2019-03-06T04:07:53.120Z,17.13
2019-03-06T04:10:58.003Z,17.30
2019-03-06T04:14:02.669Z,17.13
2019-03-06T04:17:07.662Z,16.67
2019-03-06T04:20:12.809Z,16.83
2019-03-06T04:23:17.636Z,14.07
2019-03-06T04:26:22.576Z,11.67
2019-03-06T04:29:29.733Z,12.37
2019-03-06T04:32:34.288Z,14.13
2019-03-06T04:35:39.094Z,14.63
2019-03-06T04:38:44.864Z,17.43
2019-03-06T04:41:49.724Z,37.30
2019-03-06T04:44:55.402Z,19.20
2019-03-06T04:47:59.996Z,18.80
2019-03-06T04:51:04.900Z,17.03
2019-03-06T04:54:09.729Z,18.00
2019-03-06T04:57:14.573Z,18.90
2019-03-06T05:00:19.508Z,19.90
2019-03-06T05:03:23.999Z,17.80
2019-03-06T05:06:28.962Z,17.53
2019-03-06T05:09:33.784Z,18.90
2019-03-06T05:12:38.612Z,17.40
2019-03-06T05:15:43.550Z,16.20
2019-03-06T05:18:55.741Z,17.63
2019-03-06T05:22:01.490Z,15.67
2019-03-06T05:25:06.116Z,16.70
2019-03-06T05:28:12.573Z,16.10
2019-03-06T05:31:17.312Z,16.30
2019-03-06T05:34:22.253Z,16.87
2019-03-06T05:37:51.846Z,15.20
2019-03-06T05:40:57.468Z,15.00
2019-03-06T05:44:02.210Z,14.93
2019-03-06T05:47:11.687Z,15.40
2019-03-06T05:50:16.467Z,14.57
2019-03-06T05:53:21.353Z,14.10
2019-03-06T05:56:26.180Z,14.40
2019-03-06T05:59:31.179Z,15.33
2019-03-06T06:02:36.013Z,14.40
2019-03-06T06:05:40.865Z,13.80
2019-03-06T06:08:45.789Z,14.90
2019-03-06T06:11:50.492Z,14.60
2019-03-06T06:14:55.349Z,13.17
2019-03-06T06:18:00.176Z,14.30
2019-03-06T06:21:28.445Z,13.57
2019-03-06T06:24:33.313Z,13.70
2019-03-06T06:27:38.088Z,13.63
2019-03-06T06:30:42.725Z,13.70
2019-03-06T06:33:47.633Z,12.77
2019-03-06T06:36:52.376Z,13.63
2019-03-06T06:39:57.309Z,13.23
2019-03-06T06:43:02.153Z,12.90
2019-03-06T06:46:07.605Z,12.43
2019-03-06T06:49:12.422Z,12.47
2019-03-06T06:52:48.805Z,12.57
2019-03-06T06:56:16.213Z,12.30
2019-03-06T06:59:35.470Z,10.97
2019-03-06T07:03:22.969Z,12.20
2019-03-06T07:06:41.371Z,10.97
2019-03-06T07:10:10.869Z,11.97
2019-03-06T07:13:40.622Z,13.87
2019-03-06T07:17:12.819Z,13.27
2019-03-06T07:20:55.234Z,12.20
2019-03-06T07:24:34.293Z,11.60
2019-03-06T07:27:56.827Z,11.73
2019-03-06T07:31:11.973Z,12.17
2019-03-06T07:34:32.592Z,11.20
2019-03-06T07:37:47.316Z,10.60
2019-03-06T07:41:00.857Z,12.17
2019-03-06T07:44:29.810Z,11.53
2019-03-06T07:47:47.539Z,10.97
2019-03-06T07:51:09.747Z,11.53
2019-03-06T07:54:32.509Z,11.13
2019-03-06T07:58:13.937Z,11.10
2019-03-06T08:01:23.803Z,10.70
2019-03-06T08:04:28.582Z,10.87
2019-03-06T08:07:33.310Z,11.07
2019-03-06T08:10:39.760Z,10.73
2019-03-06T08:14:06.633Z,11.20
2019-03-06T08:17:27.662Z,10.80
2019-03-06T08:20:54.596Z,10.87
2019-03-06T08:24:24.129Z,10.17
2019-03-06T08:27:28.989Z,10.30
2019-03-06T08:30:37.310Z,10.67
2019-03-06T08:33:42.814Z,10.40
2019-03-06T08:36:47.573Z,10.30
2019-03-06T08:39:52.514Z,10.80
2019-03-06T08:42:57.321Z,11.17
2019-03-06T08:46:36.093Z,10.40
2019-03-06T08:49:59.497Z,10.20
2019-03-06T08:53:16.385Z,10.83
2019-03-06T08:56:38.811Z,10.90
2019-03-06T08:59:53.944Z,11.67
2019-03-06T09:03:28.620Z,11.40
2019-03-06T09:06:52.000Z,11.00
2019-03-06T09:10:14.602Z,10.40
2019-03-06T09:13:44.379Z,11.30
2019-03-06T09:16:56.614Z,10.70
2019-03-06T09:20:18.350Z,10.13
2019-03-06T09:23:36.693Z,11.27
2019-03-06T09:26:59.728Z,12.00
2019-03-06T09:30:23.553Z,10.63
2019-03-06T09:33:45.890Z,12.17
2019-03-06T09:37:24.509Z,12.20
2019-03-06T09:40:38.680Z,10.90
2019-03-06T09:44:00.727Z,11.40
2019-03-06T09:47:27.296Z,11.03
2019-03-06T09:50:53.849Z,11.30
2019-03-06T09:54:26.684Z,11.63
2019-03-06T09:58:08.589Z,11.43
2019-03-06T10:01:31.064Z,10.37
2019-03-06T10:04:57.482Z,11.47
2019-03-06T10:08:17.632Z,11.50
2019-03-06T10:11:39.747Z,10.80
2019-03-06T10:15:02.200Z,11.13
2019-03-06T10:18:17.596Z,11.20
2019-03-06T10:21:25.674Z,10.40
2019-03-06T10:24:30.294Z,10.27
2019-03-06T10:27:35.009Z,10.43
2019-03-06T10:30:39.639Z,10.63
2019-03-06T10:33:44.446Z,9.77
2019-03-06T10:36:49.507Z,11.03
2019-03-06T10:39:54.240Z,10.93
2019-03-06T10:42:59.077Z,11.17
2019-03-06T10:46:03.675Z,10.80
2019-03-06T10:49:08.629Z,11.80
2019-03-06T10:52:13.488Z,10.43
2019-03-06T10:55:18.473Z,11.27
2019-03-06T10:58:23.236Z,11.53
2019-03-06T11:01:29.645Z,12.27
2019-03-06T11:04:39.209Z,12.50
2019-03-06T11:07:43.931Z,12.10
2019-03-06T11:10:48.693Z,49.03
2019-03-06T11:13:53.700Z,40.07
2019-03-06T11:16:58.555Z,35.27
2019-03-06T11:20:03.632Z,35.07
2019-03-06T11:23:08.521Z,32.73
2019-03-06T11:26:13.455Z,32.13
2019-03-06T11:29:19.459Z,30.80
2019-03-06T11:32:24.157Z,29.27
2019-03-06T11:35:29.144Z,30.20
2019-03-06T11:38:33.897Z,29.97
2019-03-06T11:41:38.820Z,29.80
2019-03-06T11:44:43.563Z,29.60
2019-03-06T11:47:48.449Z,29.07
2019-03-06T11:50:53.115Z,29.27
2019-03-06T11:53:57.843Z,27.57
2019-03-06T11:57:02.757Z,28.80
2019-03-06T12:00:09.705Z,28.40
2019-03-06T12:03:15.505Z,26.97
2019-03-06T12:06:20.748Z,27.10
2019-03-06T12:09:29.886Z,27.40
2019-03-06T12:12:34.691Z,27.10
2019-03-06T12:15:39.333Z,26.97
2019-03-06T12:18:44.155Z,26.20
2019-03-06T12:21:48.993Z,26.70
2019-03-06T12:24:53.626Z,25.90
2019-03-06T12:27:58.558Z,26.60
2019-03-06T12:31:03.265Z,26.93
2019-03-06T12:34:07.999Z,25.70
2019-03-06T12:37:12.770Z,24.60
2019-03-06T12:40:19.606Z,24.90
2019-03-06T12:43:24.237Z,24.20
2019-03-06T12:46:29.477Z,23.30
2019-03-06T12:49:34.304Z,24.33
2019-03-06T12:52:39.124Z,23.90
2019-03-06T12:55:45.774Z,23.40
2019-03-06T12:58:50.530Z,22.90
2019-03-06T13:01:55.173Z,23.80
2019-03-06T13:04:59.826Z,21.87
2019-03-06T13:08:04.921Z,22.93
2019-03-06T13:11:09.653Z,23.60
2019-03-06T13:14:14.591Z,21.93
2019-03-06T13:17:19.625Z,22.50
2019-03-06T13:20:24.241Z,22.27
2019-03-06T13:23:29.293Z,21.40
2019-03-06T13:26:34.162Z,21.77
2019-03-06T13:29:38.940Z,21.73
2019-03-06T13:33:14.772Z,20.60
2019-03-06T13:36:19.817Z,21.10
2019-03-06T13:39:26.713Z,21.10
2019-03-06T13:42:31.770Z,20.83
2019-03-06T13:45:36.256Z,21.23
2019-03-06T13:48:40.907Z,21.13
2019-03-06T13:51:45.712Z,20.33
2019-03-06T13:54:50.658Z,21.13
2019-03-06T13:57:55.276Z,19.60
2019-03-06T14:01:00.008Z,21.80
2019-03-06T14:04:04.990Z,20.67
2019-03-06T14:07:09.555Z,19.80
2019-03-06T14:10:15.207Z,19.60
2019-03-06T14:13:19.936Z,20.50
2019-03-06T14:16:24.473Z,19.20
2019-03-06T14:19:29.305Z,18.57
2019-03-06T14:22:34.217Z,19.70
2019-03-06T14:25:38.957Z,20.00
2019-03-06T14:28:43.780Z,19.70
2019-03-06T14:31:49.828Z,18.67
2019-03-06T14:34:54.833Z,18.40
2019-03-06T14:37:59.597Z,18.13
2019-03-06T14:41:04.639Z,17.93
2019-03-06T14:44:09.480Z,18.57
2019-03-06T14:47:14.310Z,17.83
2019-03-06T14:50:19.004Z,18.00
2019-03-06T14:53:23.775Z,17.43
2019-03-06T14:56:28.468Z,17.10
2019-03-06T14:59:33.321Z,17.03
2019-03-06T15:02:38.210Z,17.83
2019-03-06T15:05:47.152Z,17.10
2019-03-06T15:08:49.346Z,16.93
2019-03-06T15:11:54.363Z,17.13
2019-03-06T15:14:59.110Z,16.50
2019-03-06T15:18:10.386Z,16.67
2019-03-06T15:21:10.313Z,16.10
2019-03-06T15:24:15.030Z,15.17
2019-03-06T15:27:19.768Z,13.87
2019-03-06T15:30:27.728Z,15.07
2019-03-06T15:33:32.484Z,15.43
2019-03-06T15:36:37.323Z,15.10
2019-03-06T15:39:45.617Z,14.80
2019-03-06T15:42:48.631Z,14.17
2019-03-06T15:45:53.327Z,14.23
2019-03-06T15:48:58.079Z,14.50
2019-03-06T15:52:03.099Z,14.10
2019-03-06T15:55:08.364Z,14.00
2019-03-06T15:58:13.174Z,8.80
2019-03-06T16:01:17.919Z,9.20
2019-03-06T16:04:22.527Z,8.33
2019-03-06T16:07:27.366Z,8.00
2019-03-06T16:10:32.332Z,7.40
2019-03-06T16:13:37.131Z,8.07
2019-03-06T16:16:42.049Z,7.37
2019-03-06T16:19:46.990Z,7.40
2019-03-06T16:22:51.929Z,6.77
2019-03-06T16:25:56.744Z,8.23
2019-03-06T16:29:01.693Z,7.80
2019-03-06T16:32:06.525Z,9.00
2019-03-06T16:35:11.362Z,9.57
2019-03-06T16:38:16.180Z,9.40
2019-03-06T16:41:22.554Z,9.93
2019-03-06T16:44:27.167Z,9.77
2019-03-06T16:47:32.021Z,10.50
2019-03-06T16:50:36.843Z,9.40
2019-03-06T16:53:41.991Z,9.60
2019-03-06T16:56:46.904Z,10.30
2019-03-06T16:59:52.049Z,10.20
2019-03-06T17:02:56.992Z,10.20
2019-03-06T17:06:02.105Z,10.07
2019-03-06T17:09:07.449Z,9.70
2019-03-06T17:12:12.193Z,11.03
2019-03-06T17:15:17.491Z,9.60
2019-03-06T17:18:22.166Z,11.47
2019-03-06T17:21:27.035Z,11.80
2019-03-06T17:24:32.228Z,11.53
2019-03-06T17:27:37.180Z,12.17
2019-03-06T17:30:41.634Z,11.67
2019-03-06T17:33:46.638Z,12.27
2019-03-06T17:36:51.446Z,11.50
2019-03-06T17:39:56.300Z,16.23
2019-03-06T17:43:02.647Z,14.23
2019-03-06T17:46:07.487Z,14.37
2019-03-06T17:49:12.107Z,15.00
2019-03-06T17:52:16.950Z,13.37
2019-03-06T17:55:21.953Z,15.27
2019-03-06T17:58:26.807Z,13.10
2019-03-06T18:01:31.744Z,14.47
2019-03-06T18:04:36.677Z,14.80
2019-03-06T18:07:41.609Z,15.07
2019-03-06T18:10:47.534Z,15.70
2019-03-06T18:13:52.540Z,14.80
2019-03-06T18:16:57.426Z,15.83
2019-03-06T18:20:02.244Z,15.47
2019-03-06T18:23:07.171Z,15.63
2019-03-06T18:26:12.011Z,16.37
2019-03-06T18:29:16.941Z,14.23
2019-03-06T18:32:23.649Z,15.50
2019-03-06T18:35:28.538Z,14.17
2019-03-06T18:38:33.270Z,14.60
2019-03-06T18:41:38.408Z,36.20
2019-03-06T18:44:43.140Z,14.07
2019-03-06T18:47:48.023Z,13.43
2019-03-06T18:50:52.906Z,13.97
2019-03-06T18:53:58.154Z,13.43
2019-03-06T18:57:02.941Z,12.83
2019-03-06T19:00:09.386Z,12.60
2019-03-06T19:03:16.293Z,11.80
2019-03-06T19:06:20.966Z,11.23
2019-03-06T19:09:25.753Z,11.10
2019-03-06T19:12:30.305Z,11.50
2019-03-06T19:15:35.041Z,11.30
2019-03-06T19:18:39.748Z,11.40
2019-03-06T19:21:44.505Z,10.70
2019-03-06T19:24:51.080Z,10.53
2019-03-06T19:27:55.891Z,11.00
2019-03-06T19:31:00.508Z,11.00
2019-03-06T19:34:06.439Z,11.03
2019-03-06T19:37:11.301Z,11.10
2019-03-06T19:40:16.447Z,10.67
2019-03-06T19:43:22.658Z,10.60
2019-03-06T19:46:27.214Z,11.27
2019-03-06T19:49:32.055Z,10.60
2019-03-06T19:52:36.779Z,10.40
2019-03-06T19:55:41.506Z,10.97
2019-03-06T19:58:46.325Z,11.20
2019-03-06T20:01:52.480Z,11.53
2019-03-06T20:04:57.326Z,10.37
2019-03-06T20:08:02.569Z,11.70
2019-03-06T20:11:07.336Z,11.17
2019-03-06T20:14:13.117Z,10.60
2019-03-06T20:17:17.995Z,15.73
2019-03-06T20:20:22.694Z,10.80
2019-03-06T20:23:27.547Z,10.40
2019-03-06T20:26:33.747Z,10.73
2019-03-06T20:29:39.732Z,10.03
2019-03-06T20:32:47.299Z,11.00
2019-03-06T20:35:52.046Z,11.43
2019-03-06T20:38:56.814Z,11.83
2019-03-06T20:42:01.754Z,11.43
2019-03-06T20:45:06.858Z,11.43
2019-03-06T20:48:12.116Z,11.57
2019-03-06T20:51:17.357Z,11.20
2019-03-06T20:54:23.650Z,11.07
2019-03-06T20:57:28.463Z,12.23
2019-03-06T21:00:33.290Z,11.97
2019-03-06T21:03:38.017Z,10.80
2019-03-06T21:06:42.956Z,10.73
2019-03-06T21:09:49.682Z,11.47
2019-03-06T21:12:54.344Z,13.70
2019-03-06T21:15:58.970Z,13.30
2019-03-06T21:19:05.160Z,13.20
2019-03-06T21:22:10.069Z,13.00
2019-03-06T21:25:16.121Z,12.33
2019-03-06T21:28:23.014Z,12.80
2019-03-06T21:31:27.732Z,12.73
2019-03-06T21:34:32.545Z,12.00
2019-03-06T21:37:37.687Z,11.97
2019-03-06T21:40:42.516Z,16.13
2019-03-06T21:43:47.472Z,26.47
2019-03-06T21:46:52.487Z,27.03
2019-03-06T21:50:00.373Z,27.87
2019-03-06T21:53:05.338Z,28.10
2019-03-06T21:56:11.602Z,30.10
2019-03-06T21:59:17.328Z,30.00
2019-03-06T22:02:22.069Z,30.03
2019-03-06T22:05:26.805Z,32.13
2019-03-06T22:08:31.508Z,32.37
2019-03-06T22:11:36.063Z,31.63
2019-03-06T22:14:40.734Z,31.10
2019-03-06T22:17:45.568Z,31.33
2019-03-06T22:20:51.550Z,32.00
2019-03-06T22:23:56.072Z,31.50
2019-03-06T22:27:01.132Z,32.57
2019-03-06T22:30:06.749Z,33.03
2019-03-06T22:33:11.524Z,33.47
2019-03-06T22:36:16.533Z,34.93
2019-03-06T22:39:21.168Z,31.93
2019-03-06T22:42:25.891Z,33.97
2019-03-06T22:45:30.624Z,35.60
2019-03-06T22:48:37.799Z,34.87
2019-03-06T22:51:42.538Z,33.70
2019-03-06T22:54:47.335Z,35.10
2019-03-06T22:57:52.193Z,33.60
2019-03-06T23:01:17.692Z,34.83
2019-03-06T23:04:22.524Z,35.43
2019-03-06T23:07:27.280Z,34.63
2019-03-06T23:10:32.485Z,33.10
2019-03-06T23:13:37.356Z,32.93
2019-03-06T23:16:42.156Z,34.07
2019-03-06T23:19:47.026Z,33.63
2019-03-06T23:22:51.796Z,33.70
2019-03-06T23:25:56.645Z,33.70
2019-03-06T23:29:01.470Z,34.03
2019-03-06T23:32:06.401Z,32.67
2019-03-06T23:35:11.319Z,32.27
2019-03-06T23:38:16.183Z,32.30
2019-03-06T23:41:22.224Z,32.77
2019-03-06T23:44:26.949Z,33.50
2019-03-06T23:47:31.820Z,31.50
2019-03-06T23:50:36.709Z,33.50
2019-03-06T23:53:59.701Z,32.60
2019-03-06T23:57:04.489Z,33.17
